createdAt,value
2019-02-23T00:00:31.494Z,5.89
2019-02-23T00:01:31.746Z,5.93
2019-02-23T00:02:31.728Z,5.89
2019-02-23T00:03:31.472Z,5.91
2019-02-23T00:04:31.727Z,6.01
2019-02-23T00:05:31.724Z,5.89
2019-02-23T00:06:34.858Z,5.9
2019-02-23T00:07:31.443Z,5.93
2019-02-23T00:08:31.215Z,5.93
2019-02-23T00:09:31.194Z,5.84
2019-02-23T00:10:31.393Z,5.83
2019-02-23T00:11:31.647Z,5.87
2019-02-23T00:12:31.670Z,5.82
2019-02-23T00:13:31.148Z,5.87
2019-02-23T00:14:31.375Z,5.79
2019-02-23T00:15:31.363Z,5.73
2019-02-23T00:16:31.340Z,5.73
2019-02-23T00:17:31.342Z,5.69
2019-02-23T00:18:31.581Z,5.68
2019-02-23T00:19:31.329Z,5.68
2019-02-23T00:20:31.564Z,5.62
2019-02-23T00:21:31.302Z,5.66
2019-02-23T00:22:31.292Z,5.66
2019-02-23T00:23:31.288Z,5.66
2019-02-23T00:24:31.541Z,5.65
2019-02-23T00:25:31.519Z,5.68
2019-02-23T00:26:31.250Z,5.65
2019-02-23T00:27:30.999Z,5.66
2019-02-23T00:28:31.508Z,5.64
2019-02-23T00:29:30.985Z,5.8
2019-02-23T00:30:30.971Z,5.82
2019-02-23T00:31:31.459Z,5.82
2019-02-23T00:32:31.461Z,5.8
2019-02-23T00:33:31.449Z,5.72
2019-02-23T00:34:31.449Z,5.71
2019-02-23T00:35:31.190Z,5.73
2019-02-23T00:36:31.445Z,5.62
2019-02-23T00:37:31.162Z,5.68
2019-02-23T00:38:31.209Z,5.71
2019-02-23T00:39:31.392Z,5.68
2019-02-23T00:40:31.149Z,5.66
2019-02-23T00:41:31.382Z,5.66
2019-02-23T00:42:31.194Z,5.71
2019-02-23T00:43:30.862Z,5.79
2019-02-23T00:44:31.348Z,5.73
2019-02-23T00:45:31.353Z,5.8
2019-02-23T00:46:31.112Z,5.83
2019-02-23T00:47:31.085Z,5.87
2019-02-23T00:48:31.315Z,5.83
2019-02-23T00:49:40.824Z,5.83
2019-02-23T00:50:31.324Z,5.84
2019-02-23T00:51:31.298Z,5.83
2019-02-23T00:52:31.043Z,5.9
2019-02-23T00:53:31.272Z,5.84
2019-02-23T00:54:31.014Z,5.82
2019-02-23T00:55:31.002Z,5.83
2019-02-23T00:56:31.244Z,5.84
2019-02-23T00:57:30.973Z,5.84
2019-02-23T00:58:30.727Z,5.89
2019-02-23T00:59:30.973Z,5.76
2019-02-23T01:00:31.215Z,5.69
2019-02-23T01:01:31.206Z,5.65
2019-02-23T01:02:30.690Z,5.61
2019-02-23T01:03:30.943Z,5.64
2019-02-23T01:04:31.178Z,5.53
2019-02-23T01:05:30.657Z,5.54
2019-02-23T01:06:30.912Z,5.51
2019-02-23T01:07:30.903Z,5.54
2019-02-23T01:08:30.642Z,5.51
2019-02-23T01:09:30.883Z,5.54
2019-02-23T01:10:31.144Z,5.56
2019-02-23T01:11:31.119Z,5.48
2019-02-23T01:12:31.100Z,5.35
2019-02-23T01:13:31.108Z,5.46
2019-02-23T01:14:30.851Z,5.41
2019-02-23T01:15:30.579Z,5.43
2019-02-23T01:16:30.813Z,5.41
2019-02-23T01:17:30.815Z,5.38
2019-02-23T01:18:31.057Z,5.47
2019-02-23T01:19:30.562Z,5.44
2019-02-23T01:20:30.782Z,5.62
2019-02-23T01:21:30.779Z,5.59
2019-02-23T01:22:30.754Z,5.62
2019-02-23T01:23:30.999Z,5.73
2019-02-23T01:24:30.997Z,5.71
2019-02-23T01:25:30.735Z,5.72
2019-02-23T01:26:30.973Z,5.79
2019-02-23T01:27:30.475Z,5.73
2019-02-23T01:28:30.978Z,5.75
2019-02-23T01:29:30.692Z,5.73
2019-02-23T01:30:30.699Z,5.72
2019-02-23T01:31:30.926Z,5.66
2019-02-23T01:32:30.936Z,5.59
2019-02-23T01:33:30.993Z,5.64
2019-02-23T01:34:30.900Z,5.68
2019-02-23T01:35:30.888Z,5.71
2019-02-23T01:36:30.635Z,5.66
2019-02-23T01:37:30.622Z,5.61
2019-02-23T01:38:30.605Z,5.65
2019-02-23T01:39:30.603Z,5.64
2019-02-23T01:40:30.848Z,5.57
2019-02-23T01:41:30.839Z,5.51
2019-02-23T01:42:30.581Z,5.53
2019-02-23T01:43:30.836Z,5.44
2019-02-23T01:44:30.578Z,5.39
2019-02-23T01:45:30.549Z,5.32
2019-02-23T01:46:30.808Z,5.15
2019-02-23T01:47:30.536Z,5.02
2019-02-23T01:48:30.769Z,4.97
2019-02-23T01:49:30.268Z,4.78
2019-02-23T01:50:30.520Z,4.7
2019-02-23T01:51:30.747Z,4.78
2019-02-23T01:52:30.733Z,4.75
2019-02-23T01:53:30.726Z,4.71
2019-02-23T01:54:30.475Z,4.71
2019-02-23T01:55:30.494Z,4.74
2019-02-23T01:56:30.195Z,4.59
2019-02-23T01:57:30.689Z,4.66
2019-02-23T01:58:30.430Z,4.63
2019-02-23T01:59:30.427Z,4.68
2019-02-23T02:00:30.409Z,4.66
2019-02-23T02:01:30.655Z,4.56
2019-02-23T02:02:30.636Z,4.7
2019-02-23T02:03:30.694Z,4.71
2019-02-23T02:04:30.374Z,4.62
2019-02-23T02:05:30.615Z,4.67
2019-02-23T02:06:30.104Z,4.6
2019-02-23T02:07:30.343Z,4.53
2019-02-23T02:08:30.331Z,4.56
2019-02-23T02:09:30.564Z,4.52
2019-02-23T02:10:30.562Z,4.5
2019-02-23T02:11:30.059Z,4.44
2019-02-23T02:12:30.049Z,4.45
2019-02-23T02:13:30.296Z,4.44
2019-02-23T02:14:30.299Z,4.38
2019-02-23T02:15:30.535Z,4.38
2019-02-23T02:16:30.526Z,4.4
2019-02-23T02:17:30.509Z,4.42
2019-02-23T02:18:29.996Z,4.4
2019-02-23T02:19:30.486Z,4.34
2019-02-23T02:20:30.473Z,4.3
2019-02-23T02:21:29.962Z,4.32
2019-02-23T02:22:30.457Z,4.38
2019-02-23T02:23:30.266Z,4.32
2019-02-23T02:24:29.924Z,4.3
2019-02-23T02:25:30.178Z,4.3
2019-02-23T02:26:30.172Z,4.28
2019-02-23T02:27:30.428Z,4.26
2019-02-23T02:28:30.158Z,4.3
2019-02-23T02:29:30.152Z,4.26
2019-02-23T02:30:30.138Z,4.14
2019-02-23T02:31:29.867Z,4.2
2019-02-23T02:32:30.104Z,4.2
2019-02-23T02:33:30.092Z,4.08
2019-02-23T02:34:30.337Z,4.1
2019-02-23T02:35:30.168Z,4.08
2019-02-23T02:36:30.330Z,4.16
2019-02-23T02:37:30.332Z,4.22
2019-02-23T02:38:29.796Z,4.14
2019-02-23T02:39:30.057Z,4.16
2019-02-23T02:40:30.277Z,4.12
2019-02-23T02:41:30.275Z,4.22
2019-02-23T02:42:30.004Z,4.26
2019-02-23T02:43:29.993Z,4.3
2019-02-23T02:44:29.991Z,4.22
2019-02-23T02:45:29.966Z,4.17
2019-02-23T02:46:30.209Z,4.26
2019-02-23T02:47:29.966Z,4.23
2019-02-23T02:48:30.198Z,4.23
2019-02-23T02:49:30.240Z,4.26
2019-02-23T02:50:29.690Z,4.37
2019-02-23T02:51:30.157Z,4.4
2019-02-23T02:52:30.149Z,4.4
2019-02-23T02:53:30.140Z,4.42
2019-02-23T02:54:29.639Z,4.4
2019-02-23T02:55:30.137Z,4.44
2019-02-23T02:56:30.104Z,4.44
2019-02-23T02:57:30.109Z,4.42
2019-02-23T02:58:29.592Z,4.48
2019-02-23T02:59:30.101Z,4.4
2019-02-23T03:00:30.084Z,4.34
2019-02-23T03:01:30.065Z,4.37
2019-02-23T03:02:29.796Z,4.34
2019-02-23T03:03:30.121Z,4.38
2019-02-23T03:04:30.059Z,4.34
2019-02-23T03:05:30.048Z,4.32
2019-02-23T03:06:30.020Z,4.26
2019-02-23T03:07:30.006Z,4.24
2019-02-23T03:08:29.985Z,4.13
2019-02-23T03:09:29.980Z,4.19
2019-02-23T03:10:30.003Z,4.13
2019-02-23T03:11:29.963Z,4.08
2019-02-23T03:12:29.729Z,4.05
2019-02-23T03:13:29.952Z,4.06
2019-02-23T03:14:29.930Z,4.02
2019-02-23T03:15:30.471Z,3.98
2019-02-23T03:16:29.655Z,4.04
2019-02-23T03:17:29.898Z,3.96
2019-02-23T03:18:29.404Z,3.8
2019-02-23T03:19:29.881Z,3.83
2019-02-23T03:20:40.994Z,3.84
2019-02-23T03:21:29.876Z,3.91
2019-02-23T03:22:29.361Z,3.8
2019-02-23T03:23:29.859Z,3.91
2019-02-23T03:24:29.853Z,3.81
2019-02-23T03:25:29.831Z,3.78
2019-02-23T03:26:29.815Z,3.81
2019-02-23T03:27:29.558Z,3.8
2019-02-23T03:28:29.590Z,3.77
2019-02-23T03:29:29.568Z,3.78
2019-02-23T03:30:29.822Z,3.88
2019-02-23T03:31:29.770Z,3.86
2019-02-23T03:32:29.520Z,3.87
2019-02-23T03:33:29.792Z,3.84
2019-02-23T03:34:29.479Z,3.84
2019-02-23T03:35:31.083Z,3.84
2019-02-23T03:36:29.712Z,3.86
2019-02-23T03:37:29.449Z,3.91
2019-02-23T03:38:29.198Z,3.86
2019-02-23T03:39:29.445Z,3.95
2019-02-23T03:40:29.456Z,3.96
2019-02-23T03:41:29.655Z,3.94
2019-02-23T03:42:29.412Z,3.88
2019-02-23T03:43:29.394Z,3.92
2019-02-23T03:44:29.126Z,3.86
2019-02-23T03:45:29.373Z,3.8
2019-02-23T03:46:29.609Z,3.83
2019-02-23T03:47:29.602Z,3.84
2019-02-23T03:48:29.596Z,3.78
2019-02-23T03:49:29.347Z,3.76
2019-02-23T03:50:29.574Z,3.7
2019-02-23T03:51:29.561Z,3.78
2019-02-23T03:52:29.089Z,3.68
2019-02-23T03:53:29.538Z,3.63
2019-02-23T03:54:29.537Z,3.6
2019-02-23T03:55:29.272Z,3.59
2019-02-23T03:56:29.265Z,3.56
2019-02-23T03:57:29.505Z,3.48
2019-02-23T03:58:29.474Z,3.5
2019-02-23T03:59:29.473Z,3.45
2019-02-23T04:00:29.226Z,3.47
2019-02-23T04:01:28.965Z,3.58
2019-02-23T04:02:29.198Z,3.68
2019-02-23T04:03:29.438Z,3.65
2019-02-23T04:04:29.423Z,3.65
2019-02-23T04:05:30.374Z,3.65
2019-02-23T04:06:29.162Z,3.69
2019-02-23T04:07:29.153Z,3.73
2019-02-23T04:08:29.134Z,3.76
2019-02-23T04:09:29.123Z,3.76
2019-02-23T04:10:29.115Z,3.83
2019-02-23T04:11:29.355Z,3.91
2019-02-23T04:12:29.351Z,3.81
2019-02-23T04:13:29.327Z,3.98
2019-02-23T04:14:29.330Z,4.01
2019-02-23T04:15:29.340Z,4.05
2019-02-23T04:16:29.070Z,4.12
2019-02-23T04:17:29.036Z,4.16
2019-02-23T04:18:29.100Z,4.16
2019-02-23T04:19:29.275Z,4.19
2019-02-23T04:20:29.273Z,4.28
2019-02-23T04:21:29.001Z,4.35
2019-02-23T04:22:29.013Z,4.44
2019-02-23T04:23:29.244Z,4.52
2019-02-23T04:24:28.978Z,4.48
2019-02-23T04:25:28.962Z,4.52
2019-02-23T04:26:28.953Z,4.56
2019-02-23T04:27:29.222Z,4.58
2019-02-23T04:28:28.947Z,4.56
2019-02-23T04:29:29.178Z,4.6
2019-02-23T04:30:28.660Z,4.63
2019-02-23T04:31:29.199Z,4.56
2019-02-23T04:32:29.150Z,4.5
2019-02-23T04:33:29.169Z,4.5
2019-02-23T04:34:28.880Z,4.49
2019-02-23T04:35:28.855Z,4.5
2019-02-23T04:36:28.868Z,4.48
2019-02-23T04:37:29.098Z,4.41
2019-02-23T04:38:28.826Z,4.44
2019-02-23T04:39:28.831Z,4.4
2019-02-23T04:40:28.821Z,4.38
2019-02-23T04:41:28.965Z,4.4
2019-02-23T04:42:28.810Z,4.38
2019-02-23T04:43:28.808Z,4.34
2019-02-23T04:44:29.016Z,4.37
2019-02-23T04:45:28.767Z,4.38
2019-02-23T04:46:28.761Z,4.5
2019-02-23T04:47:28.758Z,4.35
2019-02-23T04:48:28.980Z,4.4
2019-02-23T04:49:30.847Z,4.38
2019-02-23T04:50:28.713Z,4.44
2019-02-23T04:51:28.958Z,4.4
2019-02-23T04:52:28.798Z,4.24
2019-02-23T04:53:28.963Z,4.26
2019-02-23T04:54:28.679Z,4.31
2019-02-23T04:55:28.662Z,4.26
2019-02-23T04:56:28.908Z,4.26
2019-02-23T04:57:28.638Z,4.23
2019-02-23T04:58:28.623Z,4.14
2019-02-23T04:59:28.366Z,4.2
2019-02-23T05:00:28.623Z,4.02
2019-02-23T05:01:28.607Z,3.99
2019-02-23T05:02:28.628Z,4.08
2019-02-23T05:03:28.335Z,4.02
2019-02-23T05:04:28.567Z,3.99
2019-02-23T05:05:28.565Z,3.84
2019-02-23T05:06:29.134Z,3.95
2019-02-23T05:07:28.827Z,3.92
2019-02-23T05:08:28.553Z,3.98
2019-02-23T05:09:28.526Z,3.98
2019-02-23T05:10:28.531Z,3.92
2019-02-23T05:11:28.762Z,3.81
2019-02-23T05:12:28.263Z,3.84
2019-02-23T05:13:28.254Z,3.81
2019-02-23T05:14:28.727Z,3.84
2019-02-23T05:15:28.489Z,3.84
2019-02-23T05:16:28.713Z,3.88
2019-02-23T05:17:28.206Z,3.91
2019-02-23T05:18:28.186Z,3.88
2019-02-23T05:19:28.507Z,3.78
2019-02-23T05:20:28.419Z,3.84
2019-02-23T05:21:31.443Z,3.86
2019-02-23T05:22:28.655Z,3.78
2019-02-23T05:23:31.340Z,3.74
2019-02-23T05:24:28.138Z,3.77
2019-02-23T05:25:28.500Z,3.76
2019-02-23T05:26:28.585Z,3.86
2019-02-23T05:27:28.090Z,3.86
2019-02-23T05:28:28.583Z,3.76
2019-02-23T05:29:28.333Z,3.77
2019-02-23T05:30:28.309Z,3.74
2019-02-23T05:31:28.303Z,3.65
2019-02-23T05:32:28.044Z,3.69
2019-02-23T05:33:28.261Z,3.6
2019-02-23T05:34:28.019Z,3.63
2019-02-23T05:35:28.261Z,3.7
2019-02-23T05:36:28.501Z,3.76
2019-02-23T05:37:28.248Z,3.74
2019-02-23T05:38:28.231Z,3.68
2019-02-23T05:39:28.227Z,3.7
2019-02-23T05:40:28.477Z,3.68
2019-02-23T05:41:28.887Z,3.69
2019-02-23T05:42:28.212Z,3.69
2019-02-23T05:43:28.444Z,3.7
2019-02-23T05:44:27.923Z,3.69
2019-02-23T05:45:28.390Z,3.62
2019-02-23T05:46:28.403Z,3.59
2019-02-23T05:47:28.149Z,3.59
2019-02-23T05:48:28.142Z,3.58
2019-02-23T05:49:27.886Z,3.56
2019-02-23T05:50:28.111Z,3.53
2019-02-23T05:51:40.746Z,3.51
2019-02-23T05:52:27.947Z,3.48
2019-02-23T05:53:28.341Z,3.51
2019-02-23T05:54:28.336Z,3.56
2019-02-23T05:55:28.049Z,3.47
2019-02-23T05:56:28.046Z,3.58
2019-02-23T05:57:27.781Z,3.42
2019-02-23T05:58:28.050Z,3.42
2019-02-23T05:59:27.992Z,3.51
2019-02-23T06:00:27.982Z,3.5
2019-02-23T06:01:28.244Z,3.58
2019-02-23T06:02:28.218Z,3.5
2019-02-23T06:03:28.211Z,3.4
2019-02-23T06:04:27.964Z,3.37
2019-02-23T06:05:27.941Z,3.34
2019-02-23T06:06:27.935Z,3.25
2019-02-23T06:07:29.763Z,3.25
2019-02-23T06:08:28.209Z,3.16
2019-02-23T06:09:27.882Z,3.1
2019-02-23T06:10:28.135Z,3.13
2019-02-23T06:11:27.614Z,3.05
2019-02-23T06:12:28.112Z,3.04
2019-02-23T06:13:28.089Z,3.01
2019-02-23T06:14:28.071Z,2.97
2019-02-23T06:15:27.844Z,2.95
2019-02-23T06:16:27.815Z,2.92
2019-02-23T06:17:28.064Z,3
2019-02-23T06:18:27.637Z,2.97
2019-02-23T06:19:28.036Z,3.04
2019-02-23T06:20:28.015Z,2.89
2019-02-23T06:21:28.000Z,2.83
2019-02-23T06:22:27.988Z,2.95
2019-02-23T06:23:28.024Z,2.97
2019-02-23T06:24:28.082Z,2.92
2019-02-23T06:25:27.726Z,2.86
2019-02-23T06:26:27.719Z,2.97
2019-02-23T06:27:27.715Z,2.9
2019-02-23T06:28:28.005Z,2.97
2019-02-23T06:29:27.738Z,3.01
2019-02-23T06:30:27.664Z,3.1
2019-02-23T06:31:27.659Z,3.11
2019-02-23T06:32:27.648Z,3.04
2019-02-23T06:33:27.876Z,3.05
2019-02-23T06:34:27.621Z,3.11
2019-02-23T06:35:27.397Z,3.05
2019-02-23T06:36:27.653Z,3
2019-02-23T06:37:27.614Z,3.04
2019-02-23T06:38:27.837Z,2.89
2019-02-23T06:39:27.601Z,2.97
2019-02-23T06:40:27.590Z,2.8
2019-02-23T06:41:27.296Z,2.87
2019-02-23T06:42:27.291Z,2.9
2019-02-23T06:43:27.775Z,2.83
2019-02-23T06:44:27.553Z,2.89
2019-02-23T06:45:27.759Z,2.98
2019-02-23T06:46:27.733Z,2.85
2019-02-23T06:47:27.726Z,2.9
2019-02-23T06:48:27.774Z,2.77
2019-02-23T06:49:27.692Z,2.79
2019-02-23T06:50:27.221Z,2.86
2019-02-23T06:51:27.674Z,2.87
2019-02-23T06:52:27.415Z,2.86
2019-02-23T06:53:27.651Z,2.83
2019-02-23T06:54:27.645Z,2.89
2019-02-23T06:55:27.409Z,2.86
2019-02-23T06:56:27.621Z,2.85
2019-02-23T06:57:27.664Z,2.82
2019-02-23T06:58:27.704Z,2.89
2019-02-23T06:59:27.112Z,2.97
2019-02-23T07:00:27.382Z,3.08
2019-02-23T07:01:27.335Z,3.07
2019-02-23T07:02:27.063Z,3.18
2019-02-23T07:03:27.312Z,3.22
2019-02-23T07:04:27.539Z,3.23
2019-02-23T07:05:27.549Z,3.26
2019-02-23T07:06:27.035Z,3.36
2019-02-23T07:07:27.294Z,3.36
2019-02-23T07:08:27.517Z,3.41
2019-02-23T07:09:27.235Z,3.47
2019-02-23T07:10:27.222Z,3.42
2019-02-23T07:11:27.225Z,3.32
2019-02-23T07:12:27.198Z,3.37
2019-02-23T07:13:26.953Z,3.59
2019-02-23T07:14:26.944Z,3.56
2019-02-23T07:15:26.924Z,3.53
2019-02-23T07:16:27.412Z,3.44
2019-02-23T07:17:27.174Z,3.59
2019-02-23T07:18:26.895Z,3.6
2019-02-23T07:19:27.138Z,3.6
2019-02-23T07:20:27.140Z,3.73
2019-02-23T07:21:26.859Z,3.77
2019-02-23T07:22:27.086Z,3.83
2019-02-23T07:23:26.845Z,3.8
2019-02-23T07:24:27.383Z,3.8
2019-02-23T07:25:27.311Z,3.84
2019-02-23T07:26:27.053Z,3.84
2019-02-23T07:27:27.062Z,3.81
2019-02-23T07:28:27.031Z,3.91
2019-02-23T07:29:27.276Z,3.94
2019-02-23T07:30:27.030Z,4.08
2019-02-23T07:31:27.038Z,4.35
2019-02-23T07:32:27.262Z,4.82
2019-02-23T07:33:36.682Z,5.71
2019-02-23T07:34:27.017Z,6.38
2019-02-23T07:35:27.232Z,7.06
2019-02-23T07:36:26.969Z,7.8
2019-02-23T07:37:27.217Z,8.34
2019-02-23T07:38:26.943Z,8.94
2019-02-23T07:39:26.941Z,9.5
2019-02-23T07:40:26.953Z,9.72
2019-02-23T07:41:26.671Z,9.97
2019-02-23T07:42:27.183Z,9.99
2019-02-23T07:43:26.936Z,9.98
2019-02-23T07:44:26.908Z,9.97
2019-02-23T07:45:26.905Z,10.09
2019-02-23T07:46:26.658Z,10.31
2019-02-23T07:47:26.888Z,10.59
2019-02-23T07:48:27.237Z,10.75
2019-02-23T07:49:26.906Z,10.75
2019-02-23T07:50:26.640Z,10.61
2019-02-23T07:51:27.121Z,10.51
2019-02-23T07:52:31.339Z,10.57
2019-02-23T07:53:26.888Z,10.75
2019-02-23T07:54:27.122Z,11.17
2019-02-23T07:55:27.117Z,11.55
2019-02-23T07:56:27.123Z,11.69
2019-02-23T07:57:26.850Z,12.07
2019-02-23T07:58:27.096Z,12.35
2019-02-23T07:59:27.101Z,12.53
2019-02-23T08:00:26.859Z,12.49
2019-02-23T08:01:26.860Z,12.91
2019-02-23T08:02:28.321Z,13.19
2019-02-23T08:03:27.121Z,13.23
2019-02-23T08:04:26.848Z,13.01
2019-02-23T08:05:27.093Z,12.8
2019-02-23T08:06:26.848Z,12.28
2019-02-23T08:07:27.101Z,12.24
2019-02-23T08:08:26.859Z,12.07
2019-02-23T08:09:26.858Z,12.2
2019-02-23T08:10:26.853Z,12.36
2019-02-23T08:11:26.592Z,12.53
2019-02-23T08:12:26.609Z,13
2019-02-23T08:13:27.083Z,13.28
2019-02-23T08:14:26.921Z,13.23
2019-02-23T08:15:27.083Z,13.27
2019-02-23T08:16:26.818Z,13.13
2019-02-23T08:17:27.649Z,13.13
2019-02-23T08:18:26.845Z,13.16
2019-02-23T08:19:27.100Z,13.22
2019-02-23T08:20:27.479Z,13.22
2019-02-23T08:21:26.829Z,13.23
2019-02-23T08:22:36.816Z,13.12
2019-02-23T08:23:27.083Z,13.25
2019-02-23T08:24:27.082Z,13.28
2019-02-23T08:25:26.838Z,13.38
2019-02-23T08:26:26.833Z,13.54
2019-02-23T08:27:26.825Z,13.68
2019-02-23T08:28:26.827Z,13.77
2019-02-23T08:29:26.817Z,13.7
2019-02-23T08:30:26.603Z,13.56
2019-02-23T08:31:26.575Z,13.47
2019-02-23T08:32:26.866Z,13.16
2019-02-23T08:33:26.818Z,13.01
2019-02-23T08:34:26.827Z,13.16
2019-02-23T08:35:26.838Z,13.3
2019-02-23T08:36:28.342Z,13.15
2019-02-23T08:37:27.072Z,13.11
2019-02-23T08:38:26.995Z,12.93
2019-02-23T08:39:26.569Z,12.46
2019-02-23T08:40:26.842Z,11.9
2019-02-23T08:41:26.601Z,11.4
2019-02-23T08:42:27.067Z,10.99
2019-02-23T08:43:26.829Z,10.33
2019-02-23T08:44:26.827Z,10.01
2019-02-23T08:45:26.824Z,9.51
2019-02-23T08:46:26.814Z,9.1
2019-02-23T08:47:26.816Z,8.69
2019-02-23T08:48:26.827Z,8.52
2019-02-23T08:49:26.801Z,8.24
2019-02-23T08:50:26.793Z,8.16
2019-02-23T08:51:27.073Z,8.18
2019-02-23T08:52:27.070Z,8.05
2019-02-23T08:53:26.545Z,8.03
2019-02-23T08:54:26.539Z,8.09
2019-02-23T08:55:26.539Z,8.08
2019-02-23T08:56:26.525Z,8.03
2019-02-23T08:57:26.783Z,7.88
2019-02-23T08:58:26.781Z,8.01
2019-02-23T08:59:27.031Z,7.98
2019-02-23T09:00:26.784Z,7.9
2019-02-23T09:01:26.758Z,7.97
2019-02-23T09:02:27.107Z,7.82
2019-02-23T09:03:27.569Z,7.8
2019-02-23T09:04:26.501Z,7.8
2019-02-23T09:05:26.496Z,7.69
2019-02-23T09:06:26.743Z,7.66
2019-02-23T09:07:26.734Z,7.79
2019-02-23T09:08:27.027Z,7.82
2019-02-23T09:09:26.568Z,7.77
2019-02-23T09:10:26.728Z,7.61
2019-02-23T09:11:26.699Z,7.6
2019-02-23T09:12:26.695Z,7.43
2019-02-23T09:13:26.519Z,7.57
2019-02-23T09:14:26.456Z,7.54
2019-02-23T09:15:27.349Z,7.6
2019-02-23T09:16:26.706Z,7.56
2019-02-23T09:17:26.907Z,7.54
2019-02-23T09:18:26.678Z,7.47
2019-02-23T09:19:26.895Z,7.6
2019-02-23T09:20:34.217Z,7.39
2019-02-23T09:21:26.879Z,7.4
2019-02-23T09:22:26.635Z,7.33
2019-02-23T09:23:26.913Z,7.35
2019-02-23T09:24:26.632Z,7.33
2019-02-23T09:25:26.886Z,7.45
2019-02-23T09:26:26.603Z,7.35
2019-02-23T09:27:26.861Z,7.29
2019-02-23T09:28:26.890Z,7.35
2019-02-23T09:29:26.848Z,7.42
2019-02-23T09:30:26.588Z,7.51
2019-02-23T09:31:26.354Z,7.54
2019-02-23T09:32:26.568Z,7.61
2019-02-23T09:33:26.817Z,7.61
2019-02-23T09:34:26.315Z,7.67
2019-02-23T09:35:26.565Z,7.79
2019-02-23T09:36:26.795Z,7.72
2019-02-23T09:37:26.778Z,7.79
2019-02-23T09:38:26.791Z,7.82
2019-02-23T09:39:26.528Z,7.85
2019-02-23T09:40:26.785Z,7.83
2019-02-23T09:41:26.775Z,7.93
2019-02-23T09:42:26.759Z,8.03
2019-02-23T09:43:27.299Z,8
2019-02-23T09:44:26.769Z,8.16
2019-02-23T09:45:26.734Z,8.13
2019-02-23T09:46:26.732Z,8.12
2019-02-23T09:47:26.714Z,8.12
2019-02-23T09:48:26.717Z,8.06
2019-02-23T09:49:26.704Z,8.19
2019-02-23T09:50:26.472Z,8.27
2019-02-23T09:51:26.692Z,8.2
2019-02-23T09:52:26.697Z,8.3
2019-02-23T09:53:26.188Z,8.31
2019-02-23T09:54:26.445Z,8.41
2019-02-23T09:55:26.497Z,8.45
2019-02-23T09:56:26.656Z,8.28
2019-02-23T09:57:26.408Z,8.38
2019-02-23T09:58:26.721Z,8.42
2019-02-23T09:59:26.726Z,8.38
2019-02-23T10:00:26.722Z,8.36
2019-02-23T10:01:26.139Z,8.41
2019-02-23T10:02:26.128Z,8.28
2019-02-23T10:03:26.119Z,8.36
2019-02-23T10:04:26.681Z,8.36
2019-02-23T10:05:26.641Z,8.51
2019-02-23T10:06:26.341Z,8.55
2019-02-23T10:07:26.643Z,8.49
2019-02-23T10:08:27.384Z,8.53
2019-02-23T10:09:26.377Z,8.56
2019-02-23T10:10:26.599Z,8.61
2019-02-23T10:11:26.329Z,8.64
2019-02-23T10:12:26.554Z,8.7
2019-02-23T10:13:26.556Z,8.64
2019-02-23T10:14:26.391Z,8.71
2019-02-23T10:15:26.319Z,8.78
2019-02-23T10:16:26.563Z,8.76
2019-02-23T10:17:26.544Z,8.78
2019-02-23T10:18:26.530Z,8.87
2019-02-23T10:19:26.297Z,8.84
2019-02-23T10:20:26.282Z,8.88
2019-02-23T10:21:26.494Z,8.94
2019-02-23T10:22:26.501Z,8.99
2019-02-23T10:23:26.990Z,9
2019-02-23T10:24:26.297Z,9.1
2019-02-23T10:25:26.486Z,8.95
2019-02-23T10:26:25.999Z,9.1
2019-02-23T10:27:26.373Z,9.22
2019-02-23T10:28:26.236Z,9.21
2019-02-23T10:29:26.462Z,9.16
2019-02-23T10:30:26.204Z,9.23
2019-02-23T10:31:25.997Z,9.34
2019-02-23T10:32:26.439Z,9.41
2019-02-23T10:33:26.443Z,9.39
2019-02-23T10:34:26.434Z,9.47
2019-02-23T10:35:26.195Z,9.37
2019-02-23T10:36:26.174Z,9.48
2019-02-23T10:37:26.429Z,9.55
2019-02-23T10:38:26.423Z,9.62
2019-02-23T10:39:25.941Z,9.66
2019-02-23T10:40:26.173Z,9.61
2019-02-23T10:41:26.145Z,9.56
2019-02-23T10:42:26.172Z,9.61
2019-02-23T10:43:26.395Z,9.62
2019-02-23T10:44:26.384Z,9.55
2019-02-23T10:45:26.136Z,9.55
2019-02-23T10:46:26.132Z,9.51
2019-02-23T10:47:25.888Z,9.65
2019-02-23T10:48:26.365Z,9.62
2019-02-23T10:49:26.114Z,9.73
2019-02-23T10:50:26.127Z,9.77
2019-02-23T10:51:26.129Z,9.76
2019-02-23T10:52:26.141Z,9.83
2019-02-23T10:53:35.244Z,9.82
2019-02-23T10:54:26.335Z,9.89
2019-02-23T10:55:26.333Z,9.82
2019-02-23T10:56:26.086Z,9.8
2019-02-23T10:57:26.080Z,9.56
2019-02-23T10:58:26.318Z,9.55
2019-02-23T10:59:26.309Z,9.41
2019-02-23T11:00:26.316Z,9.37
2019-02-23T11:01:26.313Z,9.26
2019-02-23T11:02:26.047Z,9.22
2019-02-23T11:03:25.780Z,9.18
2019-02-23T11:04:26.138Z,9.28
2019-02-23T11:05:26.041Z,9.32
2019-02-23T11:06:26.024Z,9.36
2019-02-23T11:07:26.283Z,9.37
2019-02-23T11:08:26.266Z,9.51
2019-02-23T11:09:26.285Z,9.58
2019-02-23T11:10:26.286Z,9.68
2019-02-23T11:11:25.988Z,9.69
2019-02-23T11:12:25.984Z,9.79
2019-02-23T11:13:26.036Z,9.86
2019-02-23T11:14:25.999Z,9.86
2019-02-23T11:15:25.976Z,9.91
2019-02-23T11:16:26.232Z,9.89
2019-02-23T11:17:25.956Z,9.95
2019-02-23T11:18:26.231Z,10.01
2019-02-23T11:19:25.704Z,9.86
2019-02-23T11:20:25.947Z,9.92
2019-02-23T11:21:25.932Z,9.98
2019-02-23T11:22:25.697Z,9.92
2019-02-23T11:23:25.953Z,9.92
2019-02-23T11:24:26.332Z,9.94
2019-02-23T11:25:25.951Z,10.12
2019-02-23T11:26:25.913Z,10.1
2019-02-23T11:27:25.903Z,10.05
2019-02-23T11:28:26.196Z,10.13
2019-02-23T11:29:26.159Z,10.09
2019-02-23T11:30:25.894Z,10.17
2019-02-23T11:31:25.637Z,10.16
2019-02-23T11:32:25.886Z,10.26
2019-02-23T11:33:25.906Z,10.25
2019-02-23T11:34:26.119Z,10.26
2019-02-23T11:35:26.105Z,10.31
2019-02-23T11:36:25.857Z,10.41
2019-02-23T11:37:25.865Z,10.49
2019-02-23T11:38:25.894Z,10.56
2019-02-23T11:39:25.673Z,10.56
2019-02-23T11:40:28.207Z,10.68
2019-02-23T11:41:26.097Z,10.59
2019-02-23T11:42:25.573Z,10.6
2019-02-23T11:43:26.089Z,10.56
2019-02-23T11:44:26.103Z,10.49
2019-02-23T11:45:25.805Z,10.56
2019-02-23T11:46:25.801Z,10.4
2019-02-23T11:47:25.836Z,10.38
2019-02-23T11:48:25.855Z,10.4
2019-02-23T11:49:26.167Z,10.41
2019-02-23T11:50:25.773Z,10.37
2019-02-23T11:51:25.784Z,10.4
2019-02-23T11:52:25.793Z,10.46
2019-02-23T11:53:26.010Z,10.4
2019-02-23T11:54:25.768Z,10.33
2019-02-23T11:55:25.520Z,10.35
2019-02-23T11:56:25.745Z,10.31
2019-02-23T11:57:25.745Z,10.4
2019-02-23T11:58:25.742Z,10.38
2019-02-23T11:59:25.989Z,10.51
2019-02-23T12:00:25.474Z,10.54
2019-02-23T12:01:25.485Z,10.67
2019-02-23T12:02:25.488Z,10.67
2019-02-23T12:03:25.711Z,10.54
2019-02-23T12:04:25.732Z,10.51
2019-02-23T12:05:25.711Z,10.49
2019-02-23T12:06:25.712Z,10.51
2019-02-23T12:07:25.699Z,10.54
2019-02-23T12:08:25.448Z,10.59
2019-02-23T12:09:25.684Z,10.53
2019-02-23T12:10:25.437Z,10.54
2019-02-23T12:11:25.932Z,10.6
2019-02-23T12:12:25.655Z,10.72
2019-02-23T12:13:25.653Z,10.74
2019-02-23T12:14:28.358Z,10.78
2019-02-23T12:15:25.397Z,10.89
2019-02-23T12:16:25.651Z,10.97
2019-02-23T12:17:25.395Z,11.08
2019-02-23T12:18:25.634Z,11.17
2019-02-23T12:19:25.887Z,11.27
2019-02-23T12:20:25.636Z,11.32
2019-02-23T12:21:25.869Z,11.37
2019-02-23T12:22:25.616Z,11.4
2019-02-23T12:23:25.619Z,11.37
2019-02-23T12:24:25.617Z,11.47
2019-02-23T12:25:25.867Z,11.41
2019-02-23T12:26:25.868Z,11.43
2019-02-23T12:27:25.705Z,11.36
2019-02-23T12:28:25.616Z,11.41
2019-02-23T12:29:25.332Z,11.37
2019-02-23T12:30:25.580Z,11.33
2019-02-23T12:31:25.825Z,11.33
2019-02-23T12:32:25.823Z,11.23
2019-02-23T12:33:25.877Z,11.33
2019-02-23T12:34:25.812Z,11.3
2019-02-23T12:35:25.568Z,11.29
2019-02-23T12:36:25.575Z,11.25
2019-02-23T12:37:25.798Z,11.23
2019-02-23T12:38:25.547Z,11.19
2019-02-23T12:39:25.589Z,11.17
2019-02-23T12:40:25.304Z,11.22
2019-02-23T12:41:25.346Z,11.3
2019-02-23T12:42:27.508Z,11.36
2019-02-23T12:43:25.792Z,11.37
2019-02-23T12:44:25.778Z,11.35
2019-02-23T12:45:28.228Z,11.35
2019-02-23T12:46:25.530Z,11.29
2019-02-23T12:47:25.521Z,11.26
2019-02-23T12:48:25.495Z,11.08
2019-02-23T12:49:25.757Z,11.08
2019-02-23T12:50:25.487Z,11.07
2019-02-23T12:51:25.240Z,11.18
2019-02-23T12:52:25.745Z,11.37
2019-02-23T12:53:25.735Z,11.3
2019-02-23T12:54:25.534Z,11.41
2019-02-23T12:55:25.480Z,11.36
2019-02-23T12:56:25.704Z,11.52
2019-02-23T12:57:25.715Z,11.45
2019-02-23T12:58:25.461Z,11.37
2019-02-23T12:59:25.441Z,11.43
2019-02-23T13:00:25.560Z,11.43
2019-02-23T13:01:25.457Z,11.52
2019-02-23T13:02:25.453Z,11.52
2019-02-23T13:03:25.677Z,11.55
2019-02-23T13:04:25.890Z,11.55
2019-02-23T13:05:25.681Z,11.54
2019-02-23T13:06:25.181Z,11.65
2019-02-23T13:07:25.665Z,11.73
2019-02-23T13:08:25.409Z,11.81
2019-02-23T13:09:25.669Z,11.73
2019-02-23T13:10:25.410Z,11.86
2019-02-23T13:11:25.649Z,11.81
2019-02-23T13:12:25.144Z,11.86
2019-02-23T13:13:25.667Z,11.88
2019-02-23T13:14:25.376Z,11.83
2019-02-23T13:15:25.648Z,11.83
2019-02-23T13:16:25.630Z,11.78